sensor_id;sensor_type;location;lat;lon;timestamp;temperature;humidity
20479;DHT22;10398;52.490;13.434;2023-07-13T00:01:54;22.50;99.90
20479;DHT22;10398;52.490;13.434;2023-07-13T00:04:21;22.50;99.90
20479;DHT22;10398;52.490;13.434;2023-07-13T00:06:48;22.50;99.90
20479;DHT22;10398;52.490;13.434;2023-07-13T00:09:15;22.50;99.90
20479;DHT22;10398;52.490;13.434;2023-07-13T00:11:41;22.50;99.90
20479;DHT22;10398;52.490;13.434;2023-07-13T00:14:08;22.50;99.90
20479;DHT22;10398;52.490;13.434;2023-07-13T00:16:35;22.50;99.90
20479;DHT22;10398;52.490;13.434;2023-07-13T00:19:02;22.50;99.90
20479;DHT22;10398;52.490;13.434;2023-07-13T00:21:27;22.50;99.90
20479;DHT22;10398;52.490;13.434;2023-07-13T00:23:53;22.40;99.90
20479;DHT22;10398;52.490;13.434;2023-07-13T00:26:19;22.40;99.90
20479;DHT22;10398;52.490;13.434;2023-07-13T00:28:44;22.50;99.90
20479;DHT22;10398;52.490;13.434;2023-07-13T00:31:11;22.50;99.90
20479;DHT22;10398;52.490;13.434;2023-07-13T00:33:37;22.40;99.90
20479;DHT22;10398;52.490;13.434;2023-07-13T00:36:04;22.30;99.90
20479;DHT22;10398;52.490;13.434;2023-07-13T00:38:29;22.20;99.90
20479;DHT22;10398;52.490;13.434;2023-07-13T00:40:55;22.20;99.90
20479;DHT22;10398;52.490;13.434;2023-07-13T00:43:23;22.30;99.90
20479;DHT22;10398;52.490;13.434;2023-07-13T00:48:18;22.30;99.90
20479;DHT22;10398;52.490;13.434;2023-07-13T00:50:48;22.40;99.90
20479;DHT22;10398;52.490;13.434;2023-07-13T00:53:14;22.30;99.90
20479;DHT22;10398;52.490;13.434;2023-07-13T00:55:40;22.30;99.90
20479;DHT22;10398;52.490;13.434;2023-07-13T00:58:06;22.20;99.90
20479;DHT22;10398;52.490;13.434;2023-07-13T01:00:34;22.20;99.90
20479;DHT22;10398;52.490;13.434;2023-07-13T01:03:02;22.10;99.90
20479;DHT22;10398;52.490;13.434;2023-07-13T01:05:30;22.20;99.90
20479;DHT22;10398;52.490;13.434;2023-07-13T01:07:57;22.10;99.90
20479;DHT22;10398;52.490;13.434;2023-07-13T01:10:24;22.00;99.90
20479;DHT22;10398;52.490;13.434;2023-07-13T01:12:50;22.00;99.90
20479;DHT22;10398;52.490;13.434;2023-07-13T01:15:42;21.80;99.90
20479;DHT22;10398;52.490;13.434;2023-07-13T01:18:15;21.70;99.90
20479;DHT22;10398;52.490;13.434;2023-07-13T01:20:50;21.70;99.90
20479;DHT22;10398;52.490;13.434;2023-07-13T01:23:16;21.60;99.90
20479;DHT22;10398;52.490;13.434;2023-07-13T01:25:41;21.60;99.90
20479;DHT22;10398;52.490;13.434;2023-07-13T01:28:08;21.60;99.90
20479;DHT22;10398;52.490;13.434;2023-07-13T01:30:35;21.70;99.90
20479;DHT22;10398;52.490;13.434;2023-07-13T01:33:01;21.70;99.90
20479;DHT22;10398;52.490;13.434;2023-07-13T01:35:27;21.60;99.90
20479;DHT22;10398;52.490;13.434;2023-07-13T01:37:53;21.70;99.90
20479;DHT22;10398;52.490;13.434;2023-07-13T01:40:20;21.70;99.90
20479;DHT22;10398;52.490;13.434;2023-07-13T01:42:46;21.70;99.90
20479;DHT22;10398;52.490;13.434;2023-07-13T01:45:12;21.60;99.90
20479;DHT22;10398;52.490;13.434;2023-07-13T01:47:37;21.60;99.90
20479;DHT22;10398;52.490;13.434;2023-07-13T01:50:03;21.60;99.90
20479;DHT22;10398;52.490;13.434;2023-07-13T01:52:29;21.60;99.90
20479;DHT22;10398;52.490;13.434;2023-07-13T01:54:54;21.50;99.90
20479;DHT22;10398;52.490;13.434;2023-07-13T01:57:20;21.50;99.90
20479;DHT22;10398;52.490;13.434;2023-07-13T01:59:46;21.50;99.90
20479;DHT22;10398;52.490;13.434;2023-07-13T02:02:11;21.60;99.90
20479;DHT22;10398;52.490;13.434;2023-07-13T02:04:37;21.50;99.90
20479;DHT22;10398;52.490;13.434;2023-07-13T02:07:03;21.50;99.90
20479;DHT22;10398;52.490;13.434;2023-07-13T02:09:28;21.40;99.90
20479;DHT22;10398;52.490;13.434;2023-07-13T02:11:54;21.40;99.90
20479;DHT22;10398;52.490;13.434;2023-07-13T02:14:20;21.30;99.90
20479;DHT22;10398;52.490;13.434;2023-07-13T02:16:46;21.30;99.90
20479;DHT22;10398;52.490;13.434;2023-07-13T02:19:11;21.20;99.90
20479;DHT22;10398;52.490;13.434;2023-07-13T02:21:37;21.20;99.90
20479;DHT22;10398;52.490;13.434;2023-07-13T02:24:03;21.00;99.90
20479;DHT22;10398;52.490;13.434;2023-07-13T02:26:28;21.00;99.90
20479;DHT22;10398;52.490;13.434;2023-07-13T02:28:54;21.00;99.90
20479;DHT22;10398;52.490;13.434;2023-07-13T02:31:20;20.90;99.90
20479;DHT22;10398;52.490;13.434;2023-07-13T02:33:45;20.90;99.90
20479;DHT22;10398;52.490;13.434;2023-07-13T02:36:12;20.90;99.90
20479;DHT22;10398;52.490;13.434;2023-07-13T02:38:38;21.00;99.90
20479;DHT22;10398;52.490;13.434;2023-07-13T02:41:05;21.00;99.90
20479;DHT22;10398;52.490;13.434;2023-07-13T02:43:32;20.90;99.90
20479;DHT22;10398;52.490;13.434;2023-07-13T02:45:59;20.90;99.90
20479;DHT22;10398;52.490;13.434;2023-07-13T02:48:29;20.80;99.90
20479;DHT22;10398;52.490;13.434;2023-07-13T02:50:55;20.70;99.90
20479;DHT22;10398;52.490;13.434;2023-07-13T02:53:21;20.70;99.90
20479;DHT22;10398;52.490;13.434;2023-07-13T02:55:46;20.70;99.90
20479;DHT22;10398;52.490;13.434;2023-07-13T02:58:13;20.70;99.90
20479;DHT22;10398;52.490;13.434;2023-07-13T03:00:45;20.70;99.90
20479;DHT22;10398;52.490;13.434;2023-07-13T03:03:12;20.70;99.90
20479;DHT22;10398;52.490;13.434;2023-07-13T03:05:42;20.60;99.90
20479;DHT22;10398;52.490;13.434;2023-07-13T03:08:11;20.60;99.90
20479;DHT22;10398;52.490;13.434;2023-07-13T03:10:37;20.60;99.90
20479;DHT22;10398;52.490;13.434;2023-07-13T03:13:05;20.50;99.90
20479;DHT22;10398;52.490;13.434;2023-07-13T03:15:31;20.50;99.90
20479;DHT22;10398;52.490;13.434;2023-07-13T03:17:56;20.50;99.90
20479;DHT22;10398;52.490;13.434;2023-07-13T03:20:22;20.40;99.90
20479;DHT22;10398;52.490;13.434;2023-07-13T03:22:47;20.30;99.90
20479;DHT22;10398;52.490;13.434;2023-07-13T03:25:13;20.30;99.90
20479;DHT22;10398;52.490;13.434;2023-07-13T03:27:39;20.30;99.90
20479;DHT22;10398;52.490;13.434;2023-07-13T03:30:05;20.20;99.90
20479;DHT22;10398;52.490;13.434;2023-07-13T03:32:32;20.20;99.90
20479;DHT22;10398;52.490;13.434;2023-07-13T03:34:57;20.20;99.90
20479;DHT22;10398;52.490;13.434;2023-07-13T03:37:23;20.20;99.90
20479;DHT22;10398;52.490;13.434;2023-07-13T03:39:49;20.10;99.90
20479;DHT22;10398;52.490;13.434;2023-07-13T03:42:15;20.20;99.90
20479;DHT22;10398;52.490;13.434;2023-07-13T03:44:41;20.20;99.90
20479;DHT22;10398;52.490;13.434;2023-07-13T03:47:07;20.30;99.90
20479;DHT22;10398;52.490;13.434;2023-07-13T03:49:34;20.40;99.90
20479;DHT22;10398;52.490;13.434;2023-07-13T03:52:00;20.40;99.90
20479;DHT22;10398;52.490;13.434;2023-07-13T03:54:26;20.30;99.90
20479;DHT22;10398;52.490;13.434;2023-07-13T03:56:52;20.30;99.90
20479;DHT22;10398;52.490;13.434;2023-07-13T03:59:18;20.30;99.90
20479;DHT22;10398;52.490;13.434;2023-07-13T04:01:44;20.30;99.90
20479;DHT22;10398;52.490;13.434;2023-07-13T04:04:10;20.40;99.90
20479;DHT22;10398;52.490;13.434;2023-07-13T04:06:35;20.40;99.90
20479;DHT22;10398;52.490;13.434;2023-07-13T04:09:02;20.40;99.90
20479;DHT22;10398;52.490;13.434;2023-07-13T04:11:31;20.40;99.90
20479;DHT22;10398;52.490;13.434;2023-07-13T04:13:58;20.40;99.90
20479;DHT22;10398;52.490;13.434;2023-07-13T04:16:24;20.50;99.90
20479;DHT22;10398;52.490;13.434;2023-07-13T04:18:50;20.60;99.90
20479;DHT22;10398;52.490;13.434;2023-07-13T04:21:16;20.60;99.90
20479;DHT22;10398;52.490;13.434;2023-07-13T04:23:42;20.60;99.90
20479;DHT22;10398;52.490;13.434;2023-07-13T04:26:08;20.70;99.90
20479;DHT22;10398;52.490;13.434;2023-07-13T04:28:34;20.70;99.90
20479;DHT22;10398;52.490;13.434;2023-07-13T04:31:00;20.80;99.90
20479;DHT22;10398;52.490;13.434;2023-07-13T04:33:26;20.80;99.90
20479;DHT22;10398;52.490;13.434;2023-07-13T04:35:53;20.80;99.90
20479;DHT22;10398;52.490;13.434;2023-07-13T04:38:24;20.80;99.90
20479;DHT22;10398;52.490;13.434;2023-07-13T04:40:50;20.70;99.90
20479;DHT22;10398;52.490;13.434;2023-07-13T04:43:16;20.70;99.90
20479;DHT22;10398;52.490;13.434;2023-07-13T04:45:42;20.70;99.90
20479;DHT22;10398;52.490;13.434;2023-07-13T04:48:07;20.70;99.90
20479;DHT22;10398;52.490;13.434;2023-07-13T04:50:36;20.70;99.90
20479;DHT22;10398;52.490;13.434;2023-07-13T04:53:02;20.60;99.90
20479;DHT22;10398;52.490;13.434;2023-07-13T04:55:29;20.60;99.90
20479;DHT22;10398;52.490;13.434;2023-07-13T04:57:56;20.60;99.90
20479;DHT22;10398;52.490;13.434;2023-07-13T05:00:22;20.60;99.90
20479;DHT22;10398;52.490;13.434;2023-07-13T05:02:47;20.70;99.90
20479;DHT22;10398;52.490;13.434;2023-07-13T05:05:13;20.70;99.90
20479;DHT22;10398;52.490;13.434;2023-07-13T05:07:39;20.70;99.90
20479;DHT22;10398;52.490;13.434;2023-07-13T05:10:05;20.80;99.90
20479;DHT22;10398;52.490;13.434;2023-07-13T05:12:30;20.80;99.90
20479;DHT22;10398;52.490;13.434;2023-07-13T05:14:56;20.80;99.90
20479;DHT22;10398;52.490;13.434;2023-07-13T05:17:22;20.80;99.90
20479;DHT22;10398;52.490;13.434;2023-07-13T05:19:48;20.90;99.90
20479;DHT22;10398;52.490;13.434;2023-07-13T05:22:13;20.90;99.90
20479;DHT22;10398;52.490;13.434;2023-07-13T05:24:39;20.90;99.90
20479;DHT22;10398;52.490;13.434;2023-07-13T05:27:05;20.90;99.90
20479;DHT22;10398;52.490;13.434;2023-07-13T05:29:30;21.00;99.90
20479;DHT22;10398;52.490;13.434;2023-07-13T05:31:56;21.00;99.90
20479;DHT22;10398;52.490;13.434;2023-07-13T05:34:22;21.10;99.90
20479;DHT22;10398;52.490;13.434;2023-07-13T05:36:48;21.10;99.90
20479;DHT22;10398;52.490;13.434;2023-07-13T05:39:15;21.10;99.90
20479;DHT22;10398;52.490;13.434;2023-07-13T05:41:40;21.10;99.90
20479;DHT22;10398;52.490;13.434;2023-07-13T05:44:06;21.20;99.90
20479;DHT22;10398;52.490;13.434;2023-07-13T05:46:32;21.20;99.90
20479;DHT22;10398;52.490;13.434;2023-07-13T05:48:57;21.30;99.90
20479;DHT22;10398;52.490;13.434;2023-07-13T05:51:23;21.30;99.90
20479;DHT22;10398;52.490;13.434;2023-07-13T05:53:48;21.30;99.90
20479;DHT22;10398;52.490;13.434;2023-07-13T05:56:14;21.40;99.90
20479;DHT22;10398;52.490;13.434;2023-07-13T05:58:40;21.30;99.90
20479;DHT22;10398;52.490;13.434;2023-07-13T06:01:10;21.40;99.90
20479;DHT22;10398;52.490;13.434;2023-07-13T06:03:35;21.30;99.90
20479;DHT22;10398;52.490;13.434;2023-07-13T06:06:04;21.40;99.90
20479;DHT22;10398;52.490;13.434;2023-07-13T06:08:30;21.50;99.90
20479;DHT22;10398;52.490;13.434;2023-07-13T06:11:03;21.50;99.90
20479;DHT22;10398;52.490;13.434;2023-07-13T06:13:29;21.50;99.90
20479;DHT22;10398;52.490;13.434;2023-07-13T06:15:54;21.60;99.90
20479;DHT22;10398;52.490;13.434;2023-07-13T06:18:20;21.60;99.90
20479;DHT22;10398;52.490;13.434;2023-07-13T06:20:45;21.70;99.90
20479;DHT22;10398;52.490;13.434;2023-07-13T06:23:11;21.70;99.90
20479;DHT22;10398;52.490;13.434;2023-07-13T06:25:37;21.70;99.90
20479;DHT22;10398;52.490;13.434;2023-07-13T06:28:02;21.80;99.90
20479;DHT22;10398;52.490;13.434;2023-07-13T06:30:28;21.80;99.90
20479;DHT22;10398;52.490;13.434;2023-07-13T06:32:54;21.80;99.90
20479;DHT22;10398;52.490;13.434;2023-07-13T06:35:19;21.80;99.90
20479;DHT22;10398;52.490;13.434;2023-07-13T06:37:45;21.90;99.90
20479;DHT22;10398;52.490;13.434;2023-07-13T06:40:12;21.90;99.90
20479;DHT22;10398;52.490;13.434;2023-07-13T06:42:38;22.00;99.90
20479;DHT22;10398;52.490;13.434;2023-07-13T06:45:04;22.00;99.90
20479;DHT22;10398;52.490;13.434;2023-07-13T06:47:30;22.10;99.90
20479;DHT22;10398;52.490;13.434;2023-07-13T06:49:56;22.10;99.90
20479;DHT22;10398;52.490;13.434;2023-07-13T06:52:21;22.10;99.90
20479;DHT22;10398;52.490;13.434;2023-07-13T06:54:47;22.20;99.90
20479;DHT22;10398;52.490;13.434;2023-07-13T06:57:13;22.20;99.90
20479;DHT22;10398;52.490;13.434;2023-07-13T06:59:38;22.20;99.90
20479;DHT22;10398;52.490;13.434;2023-07-13T07:02:04;22.30;99.90
20479;DHT22;10398;52.490;13.434;2023-07-13T07:04:30;22.30;99.90
20479;DHT22;10398;52.490;13.434;2023-07-13T07:06:55;22.40;99.90
20479;DHT22;10398;52.490;13.434;2023-07-13T07:09:21;22.40;99.90
20479;DHT22;10398;52.490;13.434;2023-07-13T07:11:47;22.40;99.90
20479;DHT22;10398;52.490;13.434;2023-07-13T07:14:13;22.50;99.90
20479;DHT22;10398;52.490;13.434;2023-07-13T07:16:38;22.50;99.90
20479;DHT22;10398;52.490;13.434;2023-07-13T07:19:04;22.50;99.90
20479;DHT22;10398;52.490;13.434;2023-07-13T07:21:29;22.50;99.90
20479;DHT22;10398;52.490;13.434;2023-07-13T07:23:56;22.60;99.90
20479;DHT22;10398;52.490;13.434;2023-07-13T07:26:22;22.60;99.90
20479;DHT22;10398;52.490;13.434;2023-07-13T07:28:48;22.60;99.90
20479;DHT22;10398;52.490;13.434;2023-07-13T07:31:14;22.60;99.90
20479;DHT22;10398;52.490;13.434;2023-07-13T07:33:39;22.70;99.90
20479;DHT22;10398;52.490;13.434;2023-07-13T07:36:05;22.80;99.90
20479;DHT22;10398;52.490;13.434;2023-07-13T07:38:31;22.80;99.90
20479;DHT22;10398;52.490;13.434;2023-07-13T07:41:00;22.90;99.90
20479;DHT22;10398;52.490;13.434;2023-07-13T07:43:26;23.00;99.90
20479;DHT22;10398;52.490;13.434;2023-07-13T07:45:52;23.00;99.90
20479;DHT22;10398;52.490;13.434;2023-07-13T07:48:17;23.00;99.90
20479;DHT22;10398;52.490;13.434;2023-07-13T07:50:43;23.10;99.90
20479;DHT22;10398;52.490;13.434;2023-07-13T07:53:08;23.10;99.90
20479;DHT22;10398;52.490;13.434;2023-07-13T07:55:36;23.10;99.90
20479;DHT22;10398;52.490;13.434;2023-07-13T07:58:02;23.20;99.90
20479;DHT22;10398;52.490;13.434;2023-07-13T08:00:27;23.20;99.90
20479;DHT22;10398;52.490;13.434;2023-07-13T08:02:56;23.20;99.90
20479;DHT22;10398;52.490;13.434;2023-07-13T08:05:22;23.20;99.90
20479;DHT22;10398;52.490;13.434;2023-07-13T08:07:47;23.20;99.90
20479;DHT22;10398;52.490;13.434;2023-07-13T08:10:13;23.20;99.90
20479;DHT22;10398;52.490;13.434;2023-07-13T08:12:40;23.20;99.90
20479;DHT22;10398;52.490;13.434;2023-07-13T08:15:09;23.10;99.90
20479;DHT22;10398;52.490;13.434;2023-07-13T08:17:35;23.20;99.90
20479;DHT22;10398;52.490;13.434;2023-07-13T08:20:00;23.10;99.90
20479;DHT22;10398;52.490;13.434;2023-07-13T08:22:27;23.10;99.90
20479;DHT22;10398;52.490;13.434;2023-07-13T08:24:52;23.20;99.90
20479;DHT22;10398;52.490;13.434;2023-07-13T08:27:24;23.30;99.90
20479;DHT22;10398;52.490;13.434;2023-07-13T08:29:51;23.30;99.90
20479;DHT22;10398;52.490;13.434;2023-07-13T08:32:18;23.40;99.90
20479;DHT22;10398;52.490;13.434;2023-07-13T08:34:44;23.50;99.90
20479;DHT22;10398;52.490;13.434;2023-07-13T08:37:10;23.50;99.90
20479;DHT22;10398;52.490;13.434;2023-07-13T08:39:35;23.50;99.90
20479;DHT22;10398;52.490;13.434;2023-07-13T08:47:52;23.50;99.90
20479;DHT22;10398;52.490;13.434;2023-07-13T08:50:23;23.40;99.90
20479;DHT22;10398;52.490;13.434;2023-07-13T08:52:50;23.40;99.90
20479;DHT22;10398;52.490;13.434;2023-07-13T08:55:27;23.30;99.90
20479;DHT22;10398;52.490;13.434;2023-07-13T08:58:09;23.30;99.90
20479;DHT22;10398;52.490;13.434;2023-07-13T09:01:05;23.30;99.90
20479;DHT22;10398;52.490;13.434;2023-07-13T09:03:50;23.30;99.90
20479;DHT22;10398;52.490;13.434;2023-07-13T09:06:34;23.20;99.90
20479;DHT22;10398;52.490;13.434;2023-07-13T09:09:16;23.20;99.90
20479;DHT22;10398;52.490;13.434;2023-07-13T09:17:10;23.50;99.90
20479;DHT22;10398;52.490;13.434;2023-07-13T09:19:37;23.50;99.90
20479;DHT22;10398;52.490;13.434;2023-07-13T09:22:05;23.60;99.90
20479;DHT22;10398;52.490;13.434;2023-07-13T09:24:47;23.60;99.90
20479;DHT22;10398;52.490;13.434;2023-07-13T09:27:22;23.60;99.90
20479;DHT22;10398;52.490;13.434;2023-07-13T09:33:11;23.70;99.90
20479;DHT22;10398;52.490;13.434;2023-07-13T09:35:37;23.70;99.90
20479;DHT22;10398;52.490;13.434;2023-07-13T09:38:17;23.70;99.90
20479;DHT22;10398;52.490;13.434;2023-07-13T09:44:13;24.00;99.90
20479;DHT22;10398;52.490;13.434;2023-07-13T09:46:44;24.00;99.90
20479;DHT22;10398;52.490;13.434;2023-07-13T09:49:11;23.90;99.90
20479;DHT22;10398;52.490;13.434;2023-07-13T09:51:40;24.00;99.90
20479;DHT22;10398;52.490;13.434;2023-07-13T09:54:05;24.10;99.50
20479;DHT22;10398;52.490;13.434;2023-07-13T09:56:31;24.20;98.50
20479;DHT22;10398;52.490;13.434;2023-07-13T09:59:00;24.30;98.80
20479;DHT22;10398;52.490;13.434;2023-07-13T10:01:37;24.40;98.90
20479;DHT22;10398;52.490;13.434;2023-07-13T10:04:11;24.40;97.10
20479;DHT22;10398;52.490;13.434;2023-07-13T10:06:39;24.40;97.00
20479;DHT22;10398;52.490;13.434;2023-07-13T10:09:09;24.30;96.40
20479;DHT22;10398;52.490;13.434;2023-07-13T10:11:36;24.10;96.70
20479;DHT22;10398;52.490;13.434;2023-07-13T10:14:15;24.00;96.70
20479;DHT22;10398;52.490;13.434;2023-07-13T10:16:43;24.00;97.60
20479;DHT22;10398;52.490;13.434;2023-07-13T10:19:23;24.10;98.10
20479;DHT22;10398;52.490;13.434;2023-07-13T10:22:02;24.30;99.90
20479;DHT22;10398;52.490;13.434;2023-07-13T10:24:37;24.50;98.20
20479;DHT22;10398;52.490;13.434;2023-07-13T10:27:18;24.70;97.40
20479;DHT22;10398;52.490;13.434;2023-07-13T10:32:15;24.80;97.10
20479;DHT22;10398;52.490;13.434;2023-07-13T10:34:43;24.80;97.80
20479;DHT22;10398;52.490;13.434;2023-07-13T10:37:30;24.80;96.90
20479;DHT22;10398;52.490;13.434;2023-07-13T10:40:00;24.70;96.80
20479;DHT22;10398;52.490;13.434;2023-07-13T10:42:30;24.70;96.60
20479;DHT22;10398;52.490;13.434;2023-07-13T10:44:57;24.80;96.10
20479;DHT22;10398;52.490;13.434;2023-07-13T10:47:24;24.80;96.00
20479;DHT22;10398;52.490;13.434;2023-07-13T10:49:54;24.90;95.10
20479;DHT22;10398;52.490;13.434;2023-07-13T10:55:10;24.80;94.90
20479;DHT22;10398;52.490;13.434;2023-07-13T10:57:51;24.80;94.30
20479;DHT22;10398;52.490;13.434;2023-07-13T11:00:18;24.80;94.20
20479;DHT22;10398;52.490;13.434;2023-07-13T11:02:59;24.80;94.60
20479;DHT22;10398;52.490;13.434;2023-07-13T11:05:31;24.90;95.00
20479;DHT22;10398;52.490;13.434;2023-07-13T11:08:18;25.00;94.70
20479;DHT22;10398;52.490;13.434;2023-07-13T11:10:54;25.10;94.00
20479;DHT22;10398;52.490;13.434;2023-07-13T11:18:48;25.40;92.80
20479;DHT22;10398;52.490;13.434;2023-07-13T11:21:16;25.50;93.00
20479;DHT22;10398;52.490;13.434;2023-07-13T11:23:44;25.60;93.50
20479;DHT22;10398;52.490;13.434;2023-07-13T11:29:37;25.90;91.10
20479;DHT22;10398;52.490;13.434;2023-07-13T11:32:23;26.00;91.20
20479;DHT22;10398;52.490;13.434;2023-07-13T11:34:49;26.00;91.10
20479;DHT22;10398;52.490;13.434;2023-07-13T11:37:17;26.00;91.30
20479;DHT22;10398;52.490;13.434;2023-07-13T11:39:44;26.20;90.50
20479;DHT22;10398;52.490;13.434;2023-07-13T11:42:17;26.20;90.40
20479;DHT22;10398;52.490;13.434;2023-07-13T11:44:47;26.30;90.00
20479;DHT22;10398;52.490;13.434;2023-07-13T11:47:21;26.30;90.60
20479;DHT22;10398;52.490;13.434;2023-07-13T11:49:55;26.40;91.20
20479;DHT22;10398;52.490;13.434;2023-07-13T11:52:34;26.40;91.70
20479;DHT22;10398;52.490;13.434;2023-07-13T11:55:03;26.60;91.40
20479;DHT22;10398;52.490;13.434;2023-07-13T11:57:40;26.70;91.40
20479;DHT22;10398;52.490;13.434;2023-07-13T12:00:26;26.70;90.80
20479;DHT22;10398;52.490;13.434;2023-07-13T12:02:57;26.70;90.40
20479;DHT22;10398;52.490;13.434;2023-07-13T12:05:27;26.70;90.00
20479;DHT22;10398;52.490;13.434;2023-07-13T12:07:53;26.70;88.40
20479;DHT22;10398;52.490;13.434;2023-07-13T12:15:21;26.80;89.10
20479;DHT22;10398;52.490;13.434;2023-07-13T12:17:48;27.00;88.30
20479;DHT22;10398;52.490;13.434;2023-07-13T12:20:25;27.10;89.00
20479;DHT22;10398;52.490;13.434;2023-07-13T12:22:52;27.10;88.20
20479;DHT22;10398;52.490;13.434;2023-07-13T12:25:19;27.20;87.70
20479;DHT22;10398;52.490;13.434;2023-07-13T12:27:49;27.20;87.10
20479;DHT22;10398;52.490;13.434;2023-07-13T12:30:28;27.10;87.90
20479;DHT22;10398;52.490;13.434;2023-07-13T12:33:00;27.10;88.60
20479;DHT22;10398;52.490;13.434;2023-07-13T12:35:29;27.10;88.80
20479;DHT22;10398;52.490;13.434;2023-07-13T12:38:00;27.20;87.60
20479;DHT22;10398;52.490;13.434;2023-07-13T12:40:33;27.30;88.30
20479;DHT22;10398;52.490;13.434;2023-07-13T12:43:01;27.20;86.70
20479;DHT22;10398;52.490;13.434;2023-07-13T12:45:29;27.30;87.60
20479;DHT22;10398;52.490;13.434;2023-07-13T12:47:58;27.30;86.70
20479;DHT22;10398;52.490;13.434;2023-07-13T12:50:30;27.20;86.30
20479;DHT22;10398;52.490;13.434;2023-07-13T12:53:02;27.10;86.70
20479;DHT22;10398;52.490;13.434;2023-07-13T12:55:46;27.00;86.80
20479;DHT22;10398;52.490;13.434;2023-07-13T13:01:01;26.70;86.60
20479;DHT22;10398;52.490;13.434;2023-07-13T13:03:35;26.80;87.00
20479;DHT22;10398;52.490;13.434;2023-07-13T13:06:05;26.80;86.80
20479;DHT22;10398;52.490;13.434;2023-07-13T13:08:33;26.90;85.40
20479;DHT22;10398;52.490;13.434;2023-07-13T13:10:59;26.70;84.40
20479;DHT22;10398;52.490;13.434;2023-07-13T13:13:25;26.70;84.50
20479;DHT22;10398;52.490;13.434;2023-07-13T13:15:50;26.70;84.10
20479;DHT22;10398;52.490;13.434;2023-07-13T13:18:21;26.70;84.50
20479;DHT22;10398;52.490;13.434;2023-07-13T13:20:48;26.70;84.70
20479;DHT22;10398;52.490;13.434;2023-07-13T13:23:16;26.80;84.80
20479;DHT22;10398;52.490;13.434;2023-07-13T13:25:49;26.90;85.70
20479;DHT22;10398;52.490;13.434;2023-07-13T13:28:20;27.00;85.70
20479;DHT22;10398;52.490;13.434;2023-07-13T13:30:47;27.10;84.60
20479;DHT22;10398;52.490;13.434;2023-07-13T13:33:15;27.10;84.60
20479;DHT22;10398;52.490;13.434;2023-07-13T13:35:42;27.10;84.90
20479;DHT22;10398;52.490;13.434;2023-07-13T13:38:13;27.10;84.20
20479;DHT22;10398;52.490;13.434;2023-07-13T13:40:43;27.00;85.30
20479;DHT22;10398;52.490;13.434;2023-07-13T13:43:28;27.00;84.50
20479;DHT22;10398;52.490;13.434;2023-07-13T13:45:59;26.90;85.00
20479;DHT22;10398;52.490;13.434;2023-07-13T13:48:34;27.00;85.00
20479;DHT22;10398;52.490;13.434;2023-07-13T13:51:06;27.00;85.00
20479;DHT22;10398;52.490;13.434;2023-07-13T13:53:37;27.10;83.30
20479;DHT22;10398;52.490;13.434;2023-07-13T13:56:04;27.20;82.90
20479;DHT22;10398;52.490;13.434;2023-07-13T13:58:30;27.30;85.80
20479;DHT22;10398;52.490;13.434;2023-07-13T14:00:56;27.30;83.70
20479;DHT22;10398;52.490;13.434;2023-07-13T14:03:23;27.20;86.00
20479;DHT22;10398;52.490;13.434;2023-07-13T14:05:49;27.20;84.10
20479;DHT22;10398;52.490;13.434;2023-07-13T14:08:17;27.20;83.90
20479;DHT22;10398;52.490;13.434;2023-07-13T14:10:50;27.20;83.00
20479;DHT22;10398;52.490;13.434;2023-07-13T14:13:20;27.00;82.90
20479;DHT22;10398;52.490;13.434;2023-07-13T14:15:47;26.90;84.00
20479;DHT22;10398;52.490;13.434;2023-07-13T14:18:13;27.00;83.50
20479;DHT22;10398;52.490;13.434;2023-07-13T14:20:44;27.10;82.90
20479;DHT22;10398;52.490;13.434;2023-07-13T14:23:12;27.10;83.50
20479;DHT22;10398;52.490;13.434;2023-07-13T14:25:38;27.10;83.30
20479;DHT22;10398;52.490;13.434;2023-07-13T14:28:20;27.20;82.70
20479;DHT22;10398;52.490;13.434;2023-07-13T14:30:46;27.20;81.90
20479;DHT22;10398;52.490;13.434;2023-07-13T14:33:13;27.10;81.80
20479;DHT22;10398;52.490;13.434;2023-07-13T14:35:39;27.00;82.50
20479;DHT22;10398;52.490;13.434;2023-07-13T14:38:05;27.00;82.90
20479;DHT22;10398;52.490;13.434;2023-07-13T14:40:34;26.90;83.30
20479;DHT22;10398;52.490;13.434;2023-07-13T14:43:00;26.90;84.00
20479;DHT22;10398;52.490;13.434;2023-07-13T14:45:26;26.90;82.80
20479;DHT22;10398;52.490;13.434;2023-07-13T14:47:51;27.00;83.80
20479;DHT22;10398;52.490;13.434;2023-07-13T14:50:20;27.10;83.90
20479;DHT22;10398;52.490;13.434;2023-07-13T14:52:47;27.10;83.80
20479;DHT22;10398;52.490;13.434;2023-07-13T14:55:15;27.20;83.00
20479;DHT22;10398;52.490;13.434;2023-07-13T14:57:41;27.10;83.70
20479;DHT22;10398;52.490;13.434;2023-07-13T15:02:41;27.10;82.30
20479;DHT22;10398;52.490;13.434;2023-07-13T15:05:19;27.10;83.20
20479;DHT22;10398;52.490;13.434;2023-07-13T15:07:46;27.10;82.10
20479;DHT22;10398;52.490;13.434;2023-07-13T15:10:16;27.10;81.70
20479;DHT22;10398;52.490;13.434;2023-07-13T15:12:42;27.00;81.70
20479;DHT22;10398;52.490;13.434;2023-07-13T15:15:08;27.00;82.40
20479;DHT22;10398;52.490;13.434;2023-07-13T15:17:41;26.90;82.80
20479;DHT22;10398;52.490;13.434;2023-07-13T15:20:21;26.90;81.20
20479;DHT22;10398;52.490;13.434;2023-07-13T15:22:49;26.90;81.80
20479;DHT22;10398;52.490;13.434;2023-07-13T15:25:20;26.90;79.90
20479;DHT22;10398;52.490;13.434;2023-07-13T15:27:46;26.90;80.40
20479;DHT22;10398;52.490;13.434;2023-07-13T15:30:13;26.80;80.40
20479;DHT22;10398;52.490;13.434;2023-07-13T15:32:41;26.80;80.50
20479;DHT22;10398;52.490;13.434;2023-07-13T15:35:20;26.90;79.60
20479;DHT22;10398;52.490;13.434;2023-07-13T15:37:47;27.00;79.40
20479;DHT22;10398;52.490;13.434;2023-07-13T15:40:14;27.00;79.30
20479;DHT22;10398;52.490;13.434;2023-07-13T15:42:41;27.00;78.90
20479;DHT22;10398;52.490;13.434;2023-07-13T15:45:22;27.10;78.60
20479;DHT22;10398;52.490;13.434;2023-07-13T15:47:49;27.10;78.00
20479;DHT22;10398;52.490;13.434;2023-07-13T15:50:17;27.10;78.50
20479;DHT22;10398;52.490;13.434;2023-07-13T15:52:45;27.00;78.30
20479;DHT22;10398;52.490;13.434;2023-07-13T15:55:13;27.10;79.60
20479;DHT22;10398;52.490;13.434;2023-07-13T15:57:43;27.10;79.00
20479;DHT22;10398;52.490;13.434;2023-07-13T16:00:28;27.10;79.00
20479;DHT22;10398;52.490;13.434;2023-07-13T16:02:54;27.00;79.10
20479;DHT22;10398;52.490;13.434;2023-07-13T16:05:21;27.00;79.20
20479;DHT22;10398;52.490;13.434;2023-07-13T16:07:49;26.90;79.90